sensor_id;sensor_type;location;lat;lon;timestamp;P1;durP1;ratioP1;P2;durP2;ratioP2
47599;SDS011;33323;52.124;6.018;2023-10-08T00:01:16;20.13;;;6.38;;
47599;SDS011;33323;52.124;6.018;2023-10-08T00:03:45;15.35;;;4.85;;
47599;SDS011;33323;52.124;6.018;2023-10-08T00:06:18;17.33;;;4.45;;
47599;SDS011;33323;52.124;6.018;2023-10-08T00:08:47;14.27;;;4.82;;
47599;SDS011;33323;52.124;6.018;2023-10-08T00:11:16;17.27;;;4.32;;
47599;SDS011;33323;52.124;6.018;2023-10-08T00:13:44;17.95;;;4.57;;
47599;SDS011;33323;52.124;6.018;2023-10-08T00:16:12;16.08;;;5.15;;
47599;SDS011;33323;52.124;6.018;2023-10-08T00:18:44;17.35;;;5.88;;
47599;SDS011;33323;52.124;6.018;2023-10-08T00:21:19;13.63;;;4.63;;
47599;SDS011;33323;52.124;6.018;2023-10-08T00:23:54;19.02;;;4.38;;
47599;SDS011;33323;52.124;6.018;2023-10-08T00:26:26;19.88;;;5.50;;
47599;SDS011;33323;52.124;6.018;2023-10-08T00:28:56;19.67;;;5.10;;
47599;SDS011;33323;52.124;6.018;2023-10-08T00:31:43;16.63;;;5.38;;
47599;SDS011;33323;52.124;6.018;2023-10-08T00:34:16;21.17;;;5.30;;
47599;SDS011;33323;52.124;6.018;2023-10-08T00:36:47;18.70;;;5.72;;
47599;SDS011;33323;52.124;6.018;2023-10-08T00:39:15;20.05;;;5.25;;
47599;SDS011;33323;52.124;6.018;2023-10-08T00:41:50;27.85;;;7.20;;
47599;SDS011;33323;52.124;6.018;2023-10-08T00:44:25;24.25;;;5.05;;
47599;SDS011;33323;52.124;6.018;2023-10-08T00:47:02;16.83;;;4.82;;
47599;SDS011;33323;52.124;6.018;2023-10-08T00:49:31;17.83;;;5.38;;
47599;SDS011;33323;52.124;6.018;2023-10-08T00:52:14;24.40;;;5.38;;
47599;SDS011;33323;52.124;6.018;2023-10-08T00:54:42;17.90;;;5.90;;
47599;SDS011;33323;52.124;6.018;2023-10-08T00:57:22;20.42;;;5.30;;
47599;SDS011;33323;52.124;6.018;2023-10-08T00:59:55;12.27;;;4.75;;
47599;SDS011;33323;52.124;6.018;2023-10-08T01:02:27;19.70;;;5.97;;
47599;SDS011;33323;52.124;6.018;2023-10-08T01:05:11;21.13;;;5.57;;
47599;SDS011;33323;52.124;6.018;2023-10-08T01:07:41;16.05;;;4.80;;
47599;SDS011;33323;52.124;6.018;2023-10-08T01:10:15;19.50;;;6.53;;
47599;SDS011;33323;52.124;6.018;2023-10-08T01:12:49;21.55;;;7.07;;
47599;SDS011;33323;52.124;6.018;2023-10-08T01:15:36;21.75;;;6.85;;
47599;SDS011;33323;52.124;6.018;2023-10-08T01:18:03;22.88;;;4.57;;
47599;SDS011;33323;52.124;6.018;2023-10-08T01:20:33;19.02;;;6.38;;
47599;SDS011;33323;52.124;6.018;2023-10-08T01:23:07;23.27;;;5.55;;
47599;SDS011;33323;52.124;6.018;2023-10-08T01:25:40;19.35;;;7.00;;
47599;SDS011;33323;52.124;6.018;2023-10-08T01:28:08;19.90;;;5.82;;
47599;SDS011;33323;52.124;6.018;2023-10-08T01:30:55;25.52;;;5.78;;
47599;SDS011;33323;52.124;6.018;2023-10-08T01:35:57;20.23;;;5.30;;
47599;SDS011;33323;52.124;6.018;2023-10-08T01:38:39;23.30;;;6.88;;
47599;SDS011;33323;52.124;6.018;2023-10-08T01:41:08;18.63;;;4.05;;
47599;SDS011;33323;52.124;6.018;2023-10-08T01:43:46;15.82;;;5.80;;
47599;SDS011;33323;52.124;6.018;2023-10-08T01:46:14;22.77;;;5.22;;
47599;SDS011;33323;52.124;6.018;2023-10-08T01:48:42;17.23;;;5.05;;
47599;SDS011;33323;52.124;6.018;2023-10-08T01:51:11;15.45;;;4.93;;
47599;SDS011;33323;52.124;6.018;2023-10-08T01:53:54;24.75;;;5.90;;
47599;SDS011;33323;52.124;6.018;2023-10-08T01:56:25;24.30;;;6.30;;
47599;SDS011;33323;52.124;6.018;2023-10-08T01:58:52;13.50;;;4.40;;
47599;SDS011;33323;52.124;6.018;2023-10-08T02:01:19;17.20;;;5.80;;
47599;SDS011;33323;52.124;6.018;2023-10-08T02:03:47;28.20;;;7.05;;
47599;SDS011;33323;52.124;6.018;2023-10-08T02:06:15;22.63;;;5.45;;
47599;SDS011;33323;52.124;6.018;2023-10-08T02:08:42;30.88;;;7.25;;
47599;SDS011;33323;52.124;6.018;2023-10-08T02:11:09;26.02;;;6.13;;
47599;SDS011;33323;52.124;6.018;2023-10-08T02:13:37;21.38;;;4.80;;
47599;SDS011;33323;52.124;6.018;2023-10-08T02:16:04;19.33;;;5.60;;
47599;SDS011;33323;52.124;6.018;2023-10-08T02:18:31;14.57;;;5.07;;
47599;SDS011;33323;52.124;6.018;2023-10-08T02:20:59;14.40;;;5.10;;
47599;SDS011;33323;52.124;6.018;2023-10-08T02:23:26;28.95;;;7.18;;
47599;SDS011;33323;52.124;6.018;2023-10-08T02:25:54;22.38;;;5.70;;
47599;SDS011;33323;52.124;6.018;2023-10-08T02:28:21;19.20;;;5.75;;
47599;SDS011;33323;52.124;6.018;2023-10-08T02:30:50;24.80;;;6.43;;
47599;SDS011;33323;52.124;6.018;2023-10-08T02:33:17;23.10;;;7.25;;
47599;SDS011;33323;52.124;6.018;2023-10-08T02:35:46;20.90;;;5.80;;
47599;SDS011;33323;52.124;6.018;2023-10-08T02:38:15;23.27;;;6.80;;
47599;SDS011;33323;52.124;6.018;2023-10-08T02:40:45;19.77;;;5.90;;
47599;SDS011;33323;52.124;6.018;2023-10-08T02:43:15;16.83;;;6.28;;
47599;SDS011;33323;52.124;6.018;2023-10-08T02:45:43;26.25;;;7.38;;
47599;SDS011;33323;52.124;6.018;2023-10-08T02:48:16;26.98;;;6.95;;
47599;SDS011;33323;52.124;6.018;2023-10-08T02:50:44;17.15;;;7.05;;
47599;SDS011;33323;52.124;6.018;2023-10-08T02:53:12;24.63;;;5.80;;
47599;SDS011;33323;52.124;6.018;2023-10-08T02:55:44;20.42;;;6.07;;
47599;SDS011;33323;52.124;6.018;2023-10-08T02:58:13;16.40;;;5.80;;
47599;SDS011;33323;52.124;6.018;2023-10-08T03:00:46;17.88;;;5.53;;
47599;SDS011;33323;52.124;6.018;2023-10-08T03:03:14;23.30;;;5.55;;
47599;SDS011;33323;52.124;6.018;2023-10-08T03:05:49;17.15;;;5.55;;
47599;SDS011;33323;52.124;6.018;2023-10-08T03:08:19;21.95;;;5.60;;
47599;SDS011;33323;52.124;6.018;2023-10-08T03:10:49;16.77;;;5.75;;
47599;SDS011;33323;52.124;6.018;2023-10-08T03:13:22;14.68;;;5.63;;
47599;SDS011;33323;52.124;6.018;2023-10-08T03:15:49;14.95;;;5.35;;
47599;SDS011;33323;52.124;6.018;2023-10-08T03:18:35;17.65;;;5.82;;
47599;SDS011;33323;52.124;6.018;2023-10-08T03:21:04;15.70;;;5.57;;
47599;SDS011;33323;52.124;6.018;2023-10-08T03:24:08;20.02;;;5.43;;
47599;SDS011;33323;52.124;6.018;2023-10-08T03:26:50;13.75;;;4.60;;
47599;SDS011;33323;52.124;6.018;2023-10-08T03:29:22;11.23;;;4.07;;
47599;SDS011;33323;52.124;6.018;2023-10-08T03:34:24;11.60;;;4.70;;
47599;SDS011;33323;52.124;6.018;2023-10-08T03:37:00;16.67;;;4.68;;
47599;SDS011;33323;52.124;6.018;2023-10-08T03:39:33;10.95;;;3.55;;
47599;SDS011;33323;52.124;6.018;2023-10-08T03:42:39;10.90;;;3.33;;
47599;SDS011;33323;52.124;6.018;2023-10-08T03:45:15;8.95;;;3.20;;
47599;SDS011;33323;52.124;6.018;2023-10-08T03:47:49;9.60;;;2.78;;
47599;SDS011;33323;52.124;6.018;2023-10-08T03:50:32;9.13;;;2.92;;
47599;SDS011;33323;52.124;6.018;2023-10-08T03:53:07;14.15;;;2.95;;
47599;SDS011;33323;52.124;6.018;2023-10-08T03:55:40;11.73;;;3.03;;
47599;SDS011;33323;52.124;6.018;2023-10-08T03:58:08;9.27;;;2.38;;
47599;SDS011;33323;52.124;6.018;2023-10-08T04:03:34;8.48;;;2.83;;
47599;SDS011;33323;52.124;6.018;2023-10-08T04:06:20;9.05;;;2.58;;
47599;SDS011;33323;52.124;6.018;2023-10-08T04:08:55;8.88;;;2.70;;
47599;SDS011;33323;52.124;6.018;2023-10-08T04:11:36;10.20;;;3.80;;
47599;SDS011;33323;52.124;6.018;2023-10-08T04:14:25;9.75;;;3.67;;
47599;SDS011;33323;52.124;6.018;2023-10-08T04:16:54;4.82;;;2.30;;
47599;SDS011;33323;52.124;6.018;2023-10-08T04:19:22;14.48;;;3.30;;
47599;SDS011;33323;52.124;6.018;2023-10-08T04:21:56;5.25;;;2.83;;
47599;SDS011;33323;52.124;6.018;2023-10-08T04:24:24;5.15;;;2.55;;
47599;SDS011;33323;52.124;6.018;2023-10-08T04:27:11;9.20;;;3.25;;
47599;SDS011;33323;52.124;6.018;2023-10-08T04:29:41;7.47;;;3.20;;
47599;SDS011;33323;52.124;6.018;2023-10-08T04:32:09;6.53;;;2.50;;
47599;SDS011;33323;52.124;6.018;2023-10-08T04:34:47;7.85;;;2.80;;
47599;SDS011;33323;52.124;6.018;2023-10-08T04:37:16;4.22;;;2.78;;
47599;SDS011;33323;52.124;6.018;2023-10-08T04:39:46;10.45;;;2.50;;
47599;SDS011;33323;52.124;6.018;2023-10-08T04:42:21;9.60;;;2.40;;
47599;SDS011;33323;52.124;6.018;2023-10-08T04:44:53;8.30;;;2.17;;
47599;SDS011;33323;52.124;6.018;2023-10-08T04:47:21;5.18;;;2.28;;
47599;SDS011;33323;52.124;6.018;2023-10-08T04:49:59;4.90;;;1.80;;
47599;SDS011;33323;52.124;6.018;2023-10-08T04:52:26;8.38;;;2.17;;
47599;SDS011;33323;52.124;6.018;2023-10-08T04:54:54;5.13;;;2.40;;
47599;SDS011;33323;52.124;6.018;2023-10-08T04:57:22;3.17;;;1.70;;
47599;SDS011;33323;52.124;6.018;2023-10-08T04:59:52;4.63;;;2.67;;
47599;SDS011;33323;52.124;6.018;2023-10-08T05:02:24;4.35;;;1.70;;
47599;SDS011;33323;52.124;6.018;2023-10-08T05:05:02;2.92;;;2.25;;
47599;SDS011;33323;52.124;6.018;2023-10-08T05:07:38;6.05;;;1.95;;
47599;SDS011;33323;52.124;6.018;2023-10-08T05:10:12;2.70;;;1.50;;
47599;SDS011;33323;52.124;6.018;2023-10-08T05:12:54;5.95;;;1.90;;
47599;SDS011;33323;52.124;6.018;2023-10-08T05:15:27;18.45;;;2.10;;
47599;SDS011;33323;52.124;6.018;2023-10-08T05:18:24;5.65;;;2.28;;
47599;SDS011;33323;52.124;6.018;2023-10-08T05:21:04;7.22;;;1.30;;
47599;SDS011;33323;52.124;6.018;2023-10-08T05:23:42;2.22;;;1.58;;
47599;SDS011;33323;52.124;6.018;2023-10-08T05:26:20;6.80;;;1.63;;
47599;SDS011;33323;52.124;6.018;2023-10-08T05:28:57;4.28;;;1.52;;
47599;SDS011;33323;52.124;6.018;2023-10-08T05:31:28;2.88;;;2.05;;
47599;SDS011;33323;52.124;6.018;2023-10-08T05:34:08;4.13;;;1.70;;
47599;SDS011;33323;52.124;6.018;2023-10-08T05:36:52;2.35;;;1.45;;
47599;SDS011;33323;52.124;6.018;2023-10-08T05:39:31;5.40;;;2.00;;
47599;SDS011;33323;52.124;6.018;2023-10-08T05:42:08;2.05;;;1.02;;
47599;SDS011;33323;52.124;6.018;2023-10-08T05:44:58;2.50;;;1.23;;
47599;SDS011;33323;52.124;6.018;2023-10-08T05:47:57;2.25;;;1.40;;
47599;SDS011;33323;52.124;6.018;2023-10-08T05:50:40;3.22;;;1.83;;
47599;SDS011;33323;52.124;6.018;2023-10-08T05:53:23;2.83;;;1.05;;
47599;SDS011;33323;52.124;6.018;2023-10-08T05:56:10;3.40;;;1.27;;
47599;SDS011;33323;52.124;6.018;2023-10-08T05:58:55;3.00;;;1.52;;
47599;SDS011;33323;52.124;6.018;2023-10-08T06:01:54;3.17;;;2.25;;
47599;SDS011;33323;52.124;6.018;2023-10-08T06:04:32;5.88;;;2.10;;
47599;SDS011;33323;52.124;6.018;2023-10-08T06:07:18;2.65;;;1.60;;
47599;SDS011;33323;52.124;6.018;2023-10-08T06:09:59;3.63;;;1.60;;
47599;SDS011;33323;52.124;6.018;2023-10-08T06:12:40;3.72;;;2.10;;
47599;SDS011;33323;52.124;6.018;2023-10-08T06:15:37;5.05;;;2.45;;
47599;SDS011;33323;52.124;6.018;2023-10-08T06:18:16;4.15;;;2.47;;
47599;SDS011;33323;52.124;6.018;2023-10-08T06:20:46;3.70;;;2.15;;
47599;SDS011;33323;52.124;6.018;2023-10-08T06:23:16;4.30;;;2.40;;
47599;SDS011;33323;52.124;6.018;2023-10-08T06:25:50;3.95;;;2.25;;
47599;SDS011;33323;52.124;6.018;2023-10-08T06:28:32;3.80;;;2.30;;
47599;SDS011;33323;52.124;6.018;2023-10-08T06:31:02;5.78;;;2.88;;
47599;SDS011;33323;52.124;6.018;2023-10-08T06:33:33;3.88;;;2.83;;
47599;SDS011;33323;52.124;6.018;2023-10-08T06:36:01;5.93;;;3.08;;
47599;SDS011;33323;52.124;6.018;2023-10-08T06:38:40;4.13;;;2.63;;
47599;SDS011;33323;52.124;6.018;2023-10-08T06:41:10;3.63;;;2.53;;
47599;SDS011;33323;52.124;6.018;2023-10-08T06:43:42;4.68;;;2.60;;
47599;SDS011;33323;52.124;6.018;2023-10-08T06:46:11;6.68;;;2.95;;
47599;SDS011;33323;52.124;6.018;2023-10-08T06:48:39;4.97;;;2.78;;
47599;SDS011;33323;52.124;6.018;2023-10-08T06:51:11;5.22;;;3.10;;
47599;SDS011;33323;52.124;6.018;2023-10-08T06:53:43;4.70;;;2.67;;
47599;SDS011;33323;52.124;6.018;2023-10-08T06:56:16;4.32;;;2.83;;
47599;SDS011;33323;52.124;6.018;2023-10-08T06:58:46;5.15;;;2.58;;
47599;SDS011;33323;52.124;6.018;2023-10-08T07:01:15;7.22;;;3.00;;
47599;SDS011;33323;52.124;6.018;2023-10-08T07:03:51;6.10;;;3.33;;
47599;SDS011;33323;52.124;6.018;2023-10-08T07:06:26;3.85;;;2.60;;
47599;SDS011;33323;52.124;6.018;2023-10-08T07:08:58;5.10;;;2.63;;
47599;SDS011;33323;52.124;6.018;2023-10-08T07:11:32;5.10;;;2.92;;
47599;SDS011;33323;52.124;6.018;2023-10-08T07:14:06;5.63;;;3.10;;
47599;SDS011;33323;52.124;6.018;2023-10-08T07:16:37;5.35;;;2.92;;
47599;SDS011;33323;52.124;6.018;2023-10-08T07:19:08;5.15;;;2.97;;
47599;SDS011;33323;52.124;6.018;2023-10-08T07:21:45;4.57;;;2.55;;
47599;SDS011;33323;52.124;6.018;2023-10-08T07:24:13;6.18;;;2.47;;
47599;SDS011;33323;52.124;6.018;2023-10-08T07:29:16;5.07;;;3.03;;
47599;SDS011;33323;52.124;6.018;2023-10-08T07:31:44;4.63;;;2.10;;
47599;SDS011;33323;52.124;6.018;2023-10-08T07:34:16;6.65;;;2.38;;
47599;SDS011;33323;52.124;6.018;2023-10-08T07:36:49;6.15;;;2.58;;
47599;SDS011;33323;52.124;6.018;2023-10-08T07:39:19;4.50;;;2.90;;
47599;SDS011;33323;52.124;6.018;2023-10-08T07:41:52;4.43;;;2.95;;
47599;SDS011;33323;52.124;6.018;2023-10-08T07:44:21;6.45;;;2.45;;
47599;SDS011;33323;52.124;6.018;2023-10-08T07:46:50;4.72;;;2.92;;
47599;SDS011;33323;52.124;6.018;2023-10-08T07:49:21;4.78;;;3.17;;
47599;SDS011;33323;52.124;6.018;2023-10-08T07:51:52;5.10;;;3.03;;
47599;SDS011;33323;52.124;6.018;2023-10-08T07:54:20;4.80;;;2.97;;
47599;SDS011;33323;52.124;6.018;2023-10-08T07:56:49;4.80;;;2.80;;
47599;SDS011;33323;52.124;6.018;2023-10-08T07:59:36;4.05;;;2.40;;
47599;SDS011;33323;52.124;6.018;2023-10-08T08:02:05;4.82;;;3.03;;
47599;SDS011;33323;52.124;6.018;2023-10-08T08:04:42;4.97;;;2.88;;
47599;SDS011;33323;52.124;6.018;2023-10-08T08:07:14;8.10;;;2.80;;
47599;SDS011;33323;52.124;6.018;2023-10-08T08:09:46;4.57;;;2.85;;
47599;SDS011;33323;52.124;6.018;2023-10-08T08:12:22;7.07;;;3.38;;
47599;SDS011;33323;52.124;6.018;2023-10-08T08:14:51;7.20;;;3.95;;
47599;SDS011;33323;52.124;6.018;2023-10-08T08:17:23;7.60;;;3.38;;
47599;SDS011;33323;52.124;6.018;2023-10-08T08:19:51;6.53;;;2.67;;
47599;SDS011;33323;52.124;6.018;2023-10-08T08:22:20;7.32;;;2.78;;
47599;SDS011;33323;52.124;6.018;2023-10-08T08:24:50;5.63;;;3.28;;
47599;SDS011;33323;52.124;6.018;2023-10-08T08:27:28;4.93;;;2.20;;
47599;SDS011;33323;52.124;6.018;2023-10-08T08:29:59;8.35;;;2.83;;
47599;SDS011;33323;52.124;6.018;2023-10-08T08:32:37;3.90;;;2.65;;
47599;SDS011;33323;52.124;6.018;2023-10-08T08:35:07;3.53;;;2.40;;
47599;SDS011;33323;52.124;6.018;2023-10-08T08:37:36;5.13;;;2.53;;
47599;SDS011;33323;52.124;6.018;2023-10-08T08:40:07;5.13;;;2.10;;
47599;SDS011;33323;52.124;6.018;2023-10-08T08:42:36;6.63;;;3.40;;
47599;SDS011;33323;52.124;6.018;2023-10-08T08:45:06;5.18;;;2.88;;
47599;SDS011;33323;52.124;6.018;2023-10-08T08:47:36;3.97;;;2.30;;
47599;SDS011;33323;52.124;6.018;2023-10-08T08:50:08;6.40;;;3.40;;
47599;SDS011;33323;52.124;6.018;2023-10-08T08:52:39;4.18;;;2.90;;
47599;SDS011;33323;52.124;6.018;2023-10-08T08:55:07;5.78;;;2.60;;
47599;SDS011;33323;52.124;6.018;2023-10-08T08:57:44;5.85;;;3.13;;
47599;SDS011;33323;52.124;6.018;2023-10-08T09:00:15;4.80;;;3.42;;
47599;SDS011;33323;52.124;6.018;2023-10-08T09:02:44;5.50;;;3.00;;
47599;SDS011;33323;52.124;6.018;2023-10-08T09:05:15;6.00;;;3.33;;
47599;SDS011;33323;52.124;6.018;2023-10-08T09:10:26;10.65;;;4.20;;
47599;SDS011;33323;52.124;6.018;2023-10-08T09:12:55;7.30;;;3.85;;
47599;SDS011;33323;52.124;6.018;2023-10-08T09:15:25;7.32;;;3.70;;
47599;SDS011;33323;52.124;6.018;2023-10-08T09:17:55;10.45;;;4.35;;
47599;SDS011;33323;52.124;6.018;2023-10-08T09:20:23;6.80;;;3.90;;
47599;SDS011;33323;52.124;6.018;2023-10-08T09:25:39;6.88;;;3.95;;
47599;SDS011;33323;52.124;6.018;2023-10-08T09:28:08;5.75;;;3.97;;
47599;SDS011;33323;52.124;6.018;2023-10-08T09:30:40;7.32;;;4.32;;
47599;SDS011;33323;52.124;6.018;2023-10-08T09:33:08;9.45;;;4.60;;
47599;SDS011;33323;52.124;6.018;2023-10-08T09:35:42;5.03;;;3.97;;
47599;SDS011;33323;52.124;6.018;2023-10-08T09:38:10;6.43;;;3.75;;
47599;SDS011;33323;52.124;6.018;2023-10-08T09:40:39;5.20;;;3.72;;
47599;SDS011;33323;52.124;6.018;2023-10-08T09:43:09;6.72;;;4.68;;
47599;SDS011;33323;52.124;6.018;2023-10-08T09:45:38;5.90;;;3.80;;
47599;SDS011;33323;52.124;6.018;2023-10-08T09:48:12;8.47;;;5.30;;
47599;SDS011;33323;52.124;6.018;2023-10-08T09:50:45;5.03;;;2.70;;
47599;SDS011;33323;52.124;6.018;2023-10-08T09:53:15;6.00;;;3.35;;
47599;SDS011;33323;52.124;6.018;2023-10-08T09:55:44;5.93;;;2.97;;
47599;SDS011;33323;52.124;6.018;2023-10-08T09:58:24;5.53;;;3.08;;
47599;SDS011;33323;52.124;6.018;2023-10-08T10:00:55;5.18;;;3.10;;
47599;SDS011;33323;52.124;6.018;2023-10-08T10:03:24;7.10;;;2.80;;
47599;SDS011;33323;52.124;6.018;2023-10-08T10:05:54;10.07;;;3.53;;
47599;SDS011;33323;52.124;6.018;2023-10-08T10:08:27;4.78;;;2.58;;
47599;SDS011;33323;52.124;6.018;2023-10-08T10:11:02;5.72;;;2.17;;
47599;SDS011;33323;52.124;6.018;2023-10-08T10:13:34;5.07;;;1.52;;
47599;SDS011;33323;52.124;6.018;2023-10-08T10:16:09;2.85;;;2.00;;
47599;SDS011;33323;52.124;6.018;2023-10-08T10:18:44;3.20;;;1.23;;
47599;SDS011;33323;52.124;6.018;2023-10-08T10:23:43;8.77;;;2.40;;
47599;SDS011;33323;52.124;6.018;2023-10-08T10:31:39;3.30;;;1.30;;
47599;SDS011;33323;52.124;6.018;2023-10-08T10:34:14;3.55;;;1.65;;
47599;SDS011;33323;52.124;6.018;2023-10-08T10:36:54;3.30;;;0.98;;
47599;SDS011;33323;52.124;6.018;2023-10-08T10:39:35;4.00;;;1.30;;
47599;SDS011;33323;52.124;6.018;2023-10-08T10:42:09;2.00;;;1.10;;
47599;SDS011;33323;52.124;6.018;2023-10-08T10:44:49;4.72;;;1.70;;
47599;SDS011;33323;52.124;6.018;2023-10-08T10:47:17;4.63;;;1.05;;
47599;SDS011;33323;52.124;6.018;2023-10-08T10:49:48;3.40;;;0.98;;
47599;SDS011;33323;52.124;6.018;2023-10-08T10:52:21;3.42;;;1.55;;
47599;SDS011;33323;52.124;6.018;2023-10-08T10:55:12;5.03;;;2.38;;
47599;SDS011;33323;52.124;6.018;2023-10-08T10:57:47;2.45;;;0.90;;
47599;SDS011;33323;52.124;6.018;2023-10-08T11:00:39;3.70;;;1.13;;
47599;SDS011;33323;52.124;6.018;2023-10-08T11:03:09;2.90;;;1.00;;
47599;SDS011;33323;52.124;6.018;2023-10-08T11:05:47;6.07;;;1.30;;
47599;SDS011;33323;52.124;6.018;2023-10-08T11:08:27;1.95;;;1.17;;
47599;SDS011;33323;52.124;6.018;2023-10-08T11:11:02;2.90;;;0.77;;
47599;SDS011;33323;52.124;6.018;2023-10-08T11:13:32;2.83;;;0.77;;
47599;SDS011;33323;52.124;6.018;2023-10-08T11:16:06;3.63;;;0.80;;
47599;SDS011;33323;52.124;6.018;2023-10-08T11:18:46;3.03;;;0.60;;
47599;SDS011;33323;52.124;6.018;2023-10-08T11:21:17;2.40;;;0.95;;
47599;SDS011;33323;52.124;6.018;2023-10-08T11:23:52;3.35;;;0.63;;
47599;SDS011;33323;52.124;6.018;2023-10-08T11:26:23;3.00;;;0.80;;
47599;SDS011;33323;52.124;6.018;2023-10-08T11:29:00;2.40;;;0.70;;
47599;SDS011;33323;52.124;6.018;2023-10-08T11:31:32;3.33;;;0.50;;
47599;SDS011;33323;52.124;6.018;2023-10-08T11:34:02;3.58;;;0.68;;
47599;SDS011;33323;52.124;6.018;2023-10-08T11:36:36;2.55;;;0.52;;
47599;SDS011;33323;52.124;6.018;2023-10-08T11:39:16;2.17;;;0.60;;
47599;SDS011;33323;52.124;6.018;2023-10-08T11:45:07;3.65;;;1.02;;
47599;SDS011;33323;52.124;6.018;2023-10-08T11:47:54;3.60;;;0.60;;
47599;SDS011;33323;52.124;6.018;2023-10-08T11:50:29;5.25;;;0.63;;
47599;SDS011;33323;52.124;6.018;2023-10-08T11:53:01;2.42;;;0.77;;
47599;SDS011;33323;52.124;6.018;2023-10-08T11:55:30;3.97;;;0.80;;
47599;SDS011;33323;52.124;6.018;2023-10-08T11:58:03;3.55;;;0.60;;
47599;SDS011;33323;52.124;6.018;2023-10-08T12:00:38;3.60;;;0.68;;
47599;SDS011;33323;52.124;6.018;2023-10-08T12:03:12;2.67;;;0.93;;
47599;SDS011;33323;52.124;6.018;2023-10-08T12:05:46;2.65;;;1.35;;
47599;SDS011;33323;52.124;6.018;2023-10-08T12:08:18;2.13;;;0.68;;
47599;SDS011;33323;52.124;6.018;2023-10-08T12:10:49;4.25;;;0.98;;
47599;SDS011;33323;52.124;6.018;2023-10-08T12:13:21;2.10;;;0.77;;
47599;SDS011;33323;52.124;6.018;2023-10-08T12:15:52;1.95;;;0.80;;
47599;SDS011;33323;52.124;6.018;2023-10-08T12:18:33;3.47;;;0.70;;
47599;SDS011;33323;52.124;6.018;2023-10-08T12:21:07;1.50;;;0.93;;
47599;SDS011;33323;52.124;6.018;2023-10-08T12:23:38;4.00;;;0.80;;
47599;SDS011;33323;52.124;6.018;2023-10-08T12:26:05;4.90;;;1.30;;
47599;SDS011;33323;52.124;6.018;2023-10-08T12:28:36;4.88;;;1.10;;
47599;SDS011;33323;52.124;6.018;2023-10-08T12:31:03;5.18;;;1.17;;
47599;SDS011;33323;52.124;6.018;2023-10-08T12:33:31;3.30;;;1.38;;
47599;SDS011;33323;52.124;6.018;2023-10-08T12:35:59;5.70;;;1.50;;
47599;SDS011;33323;52.124;6.018;2023-10-08T12:38:41;3.53;;;1.33;;
47599;SDS011;33323;52.124;6.018;2023-10-08T12:41:15;4.47;;;1.20;;
47599;SDS011;33323;52.124;6.018;2023-10-08T12:43:45;2.55;;;2.10;;
47599;SDS011;33323;52.124;6.018;2023-10-08T12:46:12;2.35;;;1.30;;
47599;SDS011;33323;52.124;6.018;2023-10-08T12:48:45;2.83;;;1.60;;
47599;SDS011;33323;52.124;6.018;2023-10-08T12:51:25;4.78;;;2.03;;
47599;SDS011;33323;52.124;6.018;2023-10-08T12:53:55;4.07;;;2.25;;
47599;SDS011;33323;52.124;6.018;2023-10-08T12:56:31;3.75;;;1.67;;
47599;SDS011;33323;52.124;6.018;2023-10-08T12:59:02;1.83;;;1.35;;
47599;SDS011;33323;52.124;6.018;2023-10-08T13:01:33;2.58;;;1.60;;
47599;SDS011;33323;52.124;6.018;2023-10-08T13:04:08;2.53;;;1.30;;
47599;SDS011;33323;52.124;6.018;2023-10-08T13:06:42;2.53;;;1.53;;
47599;SDS011;33323;52.124;6.018;2023-10-08T13:09:12;3.17;;;1.55;;
47599;SDS011;33323;52.124;6.018;2023-10-08T13:11:39;4.40;;;1.40;;
47599;SDS011;33323;52.124;6.018;2023-10-08T13:14:07;3.05;;;1.30;;
47599;SDS011;33323;52.124;6.018;2023-10-08T13:16:34;3.50;;;1.38;;
47599;SDS011;33323;52.124;6.018;2023-10-08T13:19:04;2.75;;;1.30;;
47599;SDS011;33323;52.124;6.018;2023-10-08T13:21:34;2.47;;;1.00;;
47599;SDS011;33323;52.124;6.018;2023-10-08T13:24:03;6.13;;;1.42;;
47599;SDS011;33323;52.124;6.018;2023-10-08T13:26:35;2.38;;;1.20;;
47599;SDS011;33323;52.124;6.018;2023-10-08T13:29:05;3.25;;;1.38;;
47599;SDS011;33323;52.124;6.018;2023-10-08T13:31:32;1.75;;;0.93;;
47599;SDS011;33323;52.124;6.018;2023-10-08T13:34:03;5.07;;;1.15;;
47599;SDS011;33323;52.124;6.018;2023-10-08T13:36:35;2.72;;;1.10;;
47599;SDS011;33323;52.124;6.018;2023-10-08T13:39:06;5.30;;;1.10;;
47599;SDS011;33323;52.124;6.018;2023-10-08T13:41:36;2.35;;;1.20;;
47599;SDS011;33323;52.124;6.018;2023-10-08T13:44:09;1.65;;;1.00;;
47599;SDS011;33323;52.124;6.018;2023-10-08T13:46:39;2.17;;;1.10;;
47599;SDS011;33323;52.124;6.018;2023-10-08T13:49:16;3.28;;;0.80;;
47599;SDS011;33323;52.124;6.018;2023-10-08T13:51:45;3.28;;;1.38;;
47599;SDS011;33323;52.124;6.018;2023-10-08T13:54:16;4.28;;;1.00;;
47599;SDS011;33323;52.124;6.018;2023-10-08T13:56:45;3.45;;;1.15;;
47599;SDS011;33323;52.124;6.018;2023-10-08T13:59:15;1.90;;;1.35;;
47599;SDS011;33323;52.124;6.018;2023-10-08T14:01:44;5.07;;;1.48;;
47599;SDS011;33323;52.124;6.018;2023-10-08T14:06:47;3.03;;;1.77;;
47599;SDS011;33323;52.124;6.018;2023-10-08T14:09:19;6.00;;;2.72;;
47599;SDS011;33323;52.124;6.018;2023-10-08T14:11:48;5.10;;;2.03;;
47599;SDS011;33323;52.124;6.018;2023-10-08T14:14:19;5.75;;;1.67;;
47599;SDS011;33323;52.124;6.018;2023-10-08T14:16:51;2.90;;;1.58;;
47599;SDS011;33323;52.124;6.018;2023-10-08T14:19:20;4.40;;;2.40;;
47599;SDS011;33323;52.124;6.018;2023-10-08T14:21:55;2.80;;;1.90;;
47599;SDS011;33323;52.124;6.018;2023-10-08T14:24:30;3.80;;;1.92;;
47599;SDS011;33323;52.124;6.018;2023-10-08T14:27:02;2.17;;;1.98;;
47599;SDS011;33323;52.124;6.018;2023-10-08T14:29:37;2.67;;;2.05;;
47599;SDS011;33323;52.124;6.018;2023-10-08T14:32:13;2.53;;;1.67;;
47599;SDS011;33323;52.124;6.018;2023-10-08T14:34:42;3.13;;;1.67;;
47599;SDS011;33323;52.124;6.018;2023-10-08T14:37:09;2.38;;;1.70;;
47599;SDS011;33323;52.124;6.018;2023-10-08T14:39:55;2.08;;;1.50;;
47599;SDS011;33323;52.124;6.018;2023-10-08T14:45:31;2.55;;;1.60;;
47599;SDS011;33323;52.124;6.018;2023-10-08T14:50:38;3.65;;;1.30;;
47599;SDS011;33323;52.124;6.018;2023-10-08T14:53:06;5.68;;;1.40;;
47599;SDS011;33323;52.124;6.018;2023-10-08T14:55:35;2.90;;;1.27;;
47599;SDS011;33323;52.124;6.018;2023-10-08T14:58:04;1.90;;;1.20;;
47599;SDS011;33323;52.124;6.018;2023-10-08T15:00:36;1.92;;;1.38;;
47599;SDS011;33323;52.124;6.018;2023-10-08T15:03:06;2.53;;;1.77;;
47599;SDS011;33323;52.124;6.018;2023-10-08T15:05:37;2.75;;;1.20;;
47599;SDS011;33323;52.124;6.018;2023-10-08T15:08:06;1.30;;;1.13;;
47599;SDS011;33323;52.124;6.018;2023-10-08T15:10:37;1.30;;;0.90;;
47599;SDS011;33323;52.124;6.018;2023-10-08T15:13:05;1.85;;;1.17;;
47599;SDS011;33323;52.124;6.018;2023-10-08T15:15:36;1.65;;;1.00;;
47599;SDS011;33323;52.124;6.018;2023-10-08T15:18:07;2.60;;;1.10;;
47599;SDS011;33323;52.124;6.018;2023-10-08T15:20:39;1.88;;;1.05;;
47599;SDS011;33323;52.124;6.018;2023-10-08T15:23:08;3.00;;;1.65;;
47599;SDS011;33323;52.124;6.018;2023-10-08T15:25:39;2.03;;;1.15;;
47599;SDS011;33323;52.124;6.018;2023-10-08T15:28:06;2.88;;;1.45;;
47599;SDS011;33323;52.124;6.018;2023-10-08T15:30:34;3.28;;;1.73;;
47599;SDS011;33323;52.124;6.018;2023-10-08T15:33:02;1.33;;;1.02;;
47599;SDS011;33323;52.124;6.018;2023-10-08T15:35:30;4.47;;;1.35;;
47599;SDS011;33323;52.124;6.018;2023-10-08T15:37:57;1.52;;;1.05;;
47599;SDS011;33323;52.124;6.018;2023-10-08T15:40:24;2.45;;;1.45;;
47599;SDS011;33323;52.124;6.018;2023-10-08T15:42:52;2.22;;;0.90;;
47599;SDS011;33323;52.124;6.018;2023-10-08T15:45:22;2.28;;;1.10;;
47599;SDS011;33323;52.124;6.018;2023-10-08T15:47:51;1.60;;;0.85;;
47599;SDS011;33323;52.124;6.018;2023-10-08T15:50:19;1.05;;;0.60;;
47599;SDS011;33323;52.124;6.018;2023-10-08T15:52:48;4.45;;;1.20;;